createdAt,value
2018-11-13T00:00:38.553Z,995.28
2018-11-13T00:01:38.562Z,995.25
2018-11-13T00:02:38.547Z,995.20
2018-11-13T00:03:38.519Z,995.29
2018-11-13T00:04:38.509Z,995.29
2018-11-13T00:05:38.498Z,995.22
2018-11-13T00:06:38.489Z,995.23
2018-11-13T00:07:38.500Z,995.26
2018-11-13T00:08:38.480Z,995.28
2018-11-13T00:09:38.455Z,995.21
2018-11-13T00:10:38.447Z,995.20
2018-11-13T00:11:38.487Z,995.17
2018-11-13T00:12:38.426Z,995.19
2018-11-13T00:13:38.465Z,995.14
2018-11-13T00:14:38.403Z,995.19
2018-11-13T00:15:38.394Z,995.24
2018-11-13T00:16:38.403Z,995.22
2018-11-13T00:17:38.372Z,995.26
2018-11-13T00:18:38.378Z,995.23
2018-11-13T00:19:38.369Z,995.28
2018-11-13T00:20:38.339Z,995.25
2018-11-13T00:21:38.331Z,995.23
2018-11-13T00:22:38.317Z,995.23
2018-11-13T00:23:38.320Z,995.30
2018-11-13T00:24:38.331Z,995.29
2018-11-13T00:25:38.283Z,995.30
2018-11-13T00:26:38.274Z,995.31
2018-11-13T00:27:38.357Z,995.36
2018-11-13T00:28:38.269Z,995.37
2018-11-13T00:29:38.239Z,995.33
2018-11-13T00:30:38.275Z,995.39
2018-11-13T00:31:38.220Z,995.38
2018-11-13T00:32:38.212Z,995.41
2018-11-13T00:33:38.215Z,995.34
2018-11-13T00:34:38.189Z,995.34
2018-11-13T00:35:38.181Z,995.30
2018-11-13T00:36:38.205Z,995.34
2018-11-13T00:37:38.154Z,995.30
2018-11-13T00:38:38.155Z,995.38
2018-11-13T00:39:38.137Z,995.38
2018-11-13T00:40:38.124Z,995.41
2018-11-13T00:41:38.112Z,995.42
2018-11-13T00:42:38.114Z,995.39
2018-11-13T00:43:38.106Z,995.41
2018-11-13T00:44:38.080Z,995.42
2018-11-13T00:45:38.203Z,995.45
2018-11-13T00:46:38.058Z,995.46
2018-11-13T00:47:38.048Z,995.45
2018-11-13T00:48:38.100Z,995.50
2018-11-13T00:49:38.029Z,995.46
2018-11-13T00:50:38.106Z,995.49
2018-11-13T00:51:38.006Z,995.42
2018-11-13T00:52:37.994Z,995.45
2018-11-13T00:53:37.999Z,995.42
2018-11-13T00:54:37.997Z,995.46
2018-11-13T00:55:37.963Z,995.54
2018-11-13T00:56:37.950Z,995.50
2018-11-13T00:57:37.945Z,995.50
2018-11-13T00:58:37.943Z,995.48
2018-11-13T00:59:37.921Z,995.51
2018-11-13T01:00:37.970Z,995.60
2018-11-13T01:01:37.895Z,995.63
2018-11-13T01:02:37.885Z,995.61
2018-11-13T01:03:37.888Z,995.55
2018-11-13T01:04:37.868Z,995.52
2018-11-13T01:05:37.897Z,995.54
2018-11-13T01:06:37.868Z,995.61
2018-11-13T01:07:37.882Z,995.57
2018-11-13T01:08:37.834Z,995.66
2018-11-13T01:09:37.813Z,995.78
2018-11-13T01:10:37.799Z,995.77
2018-11-13T01:11:37.822Z,995.78
2018-11-13T01:12:37.818Z,995.76
2018-11-13T01:13:37.784Z,995.82
2018-11-13T01:14:37.757Z,995.77
2018-11-13T01:15:37.747Z,995.77
2018-11-13T01:16:37.736Z,995.77
2018-11-13T01:17:37.726Z,995.79
2018-11-13T01:18:37.752Z,995.80
2018-11-13T01:19:37.704Z,995.83
2018-11-13T01:20:37.690Z,995.84
2018-11-13T01:21:37.679Z,995.86
2018-11-13T01:22:37.671Z,995.80
2018-11-13T01:23:37.674Z,995.83
2018-11-13T01:24:37.695Z,995.85
2018-11-13T01:25:37.686Z,995.88
2018-11-13T01:26:37.627Z,995.85
2018-11-13T01:27:37.614Z,995.76
2018-11-13T01:28:37.620Z,995.85
2018-11-13T01:29:37.595Z,995.78
2018-11-13T01:30:37.625Z,995.83
2018-11-13T01:31:37.571Z,995.76
2018-11-13T01:32:37.562Z,995.76
2018-11-13T01:33:37.565Z,995.79
2018-11-13T01:34:37.543Z,995.78
2018-11-13T01:35:37.533Z,995.76
2018-11-13T01:36:37.548Z,995.82
2018-11-13T01:37:37.510Z,995.79
2018-11-13T01:38:37.510Z,995.83
2018-11-13T01:39:37.492Z,995.83
2018-11-13T01:40:37.474Z,995.85
2018-11-13T01:41:37.473Z,995.83
2018-11-13T01:42:37.485Z,995.79
2018-11-13T01:43:37.456Z,995.78
2018-11-13T01:44:37.430Z,995.82
2018-11-13T01:45:37.458Z,995.80
2018-11-13T01:46:37.410Z,995.83
2018-11-13T01:47:37.401Z,995.83
2018-11-13T01:48:37.428Z,995.84
2018-11-13T01:49:37.390Z,995.84
2018-11-13T01:50:37.366Z,995.87
2018-11-13T01:51:37.355Z,995.86
2018-11-13T01:52:37.347Z,995.81
2018-11-13T01:53:37.346Z,995.89
2018-11-13T01:54:37.354Z,995.87
2018-11-13T01:55:37.319Z,995.87
2018-11-13T01:56:37.302Z,995.85
2018-11-13T01:57:37.291Z,995.86
2018-11-13T01:58:37.297Z,995.84
2018-11-13T01:59:37.274Z,995.86
2018-11-13T02:00:37.292Z,995.83
2018-11-13T02:01:37.249Z,995.85
2018-11-13T02:02:37.239Z,995.89
2018-11-13T02:03:37.242Z,995.87
2018-11-13T02:04:37.218Z,995.85
2018-11-13T02:05:37.206Z,995.82
2018-11-13T02:06:37.232Z,995.90
2018-11-13T02:07:37.184Z,995.89
2018-11-13T02:08:37.189Z,995.92
2018-11-13T02:09:37.165Z,995.95
2018-11-13T02:10:37.156Z,995.96
2018-11-13T02:11:37.143Z,995.91
2018-11-13T02:12:37.159Z,995.98
2018-11-13T02:13:37.133Z,995.92
2018-11-13T02:14:37.115Z,995.95
2018-11-13T02:15:37.100Z,995.97
2018-11-13T02:16:37.091Z,995.92
2018-11-13T02:17:37.082Z,995.95
2018-11-13T02:18:37.111Z,995.92
2018-11-13T02:19:37.061Z,995.93
2018-11-13T02:20:37.052Z,995.94
2018-11-13T02:21:37.037Z,995.92
2018-11-13T02:22:37.025Z,995.96
2018-11-13T02:23:37.027Z,995.99
2018-11-13T02:24:37.031Z,995.94
2018-11-13T02:25:36.994Z,995.92
2018-11-13T02:26:36.985Z,995.93
2018-11-13T02:27:36.974Z,995.95
2018-11-13T02:28:36.977Z,995.93
2018-11-13T02:29:36.952Z,995.97
2018-11-13T02:30:36.963Z,995.94
2018-11-13T02:31:36.931Z,995.89
2018-11-13T02:32:36.920Z,995.88
2018-11-13T02:33:36.935Z,995.87
2018-11-13T02:34:36.899Z,995.87
2018-11-13T02:35:36.921Z,995.88
2018-11-13T02:36:36.901Z,995.92
2018-11-13T02:37:36.876Z,995.84
2018-11-13T02:38:36.869Z,995.89
2018-11-13T02:39:36.845Z,995.89
2018-11-13T02:40:36.839Z,995.87
2018-11-13T02:41:36.823Z,995.84
2018-11-13T02:42:36.837Z,995.88
2018-11-13T02:43:36.816Z,995.85
2018-11-13T02:44:36.792Z,995.88
2018-11-13T02:45:36.780Z,995.88
2018-11-13T02:46:36.769Z,995.89
2018-11-13T02:47:36.760Z,995.88
2018-11-13T02:48:36.801Z,995.86
2018-11-13T02:49:36.739Z,995.88
2018-11-13T02:50:36.730Z,995.89
2018-11-13T02:51:36.718Z,995.91
2018-11-13T02:52:36.705Z,995.89
2018-11-13T02:53:36.696Z,995.87
2018-11-13T02:54:36.714Z,995.92
2018-11-13T02:55:36.675Z,995.91
2018-11-13T02:56:36.667Z,995.88
2018-11-13T02:57:36.654Z,995.85
2018-11-13T02:58:36.646Z,995.93
2018-11-13T02:59:36.644Z,995.94
2018-11-13T03:00:36.641Z,995.99
2018-11-13T03:01:36.610Z,996.15
2018-11-13T03:02:36.606Z,996.22
2018-11-13T03:03:36.588Z,996.21
2018-11-13T03:04:36.590Z,996.22
2018-11-13T03:05:36.567Z,996.25
2018-11-13T03:06:36.587Z,996.33
2018-11-13T03:07:36.547Z,996.35
2018-11-13T03:08:36.536Z,996.44
2018-11-13T03:09:36.535Z,996.49
2018-11-13T03:10:36.513Z,996.52
2018-11-13T03:11:36.502Z,996.43
2018-11-13T03:12:36.556Z,996.46
2018-11-13T03:13:36.554Z,996.47
2018-11-13T03:14:36.485Z,996.59
2018-11-13T03:15:36.461Z,996.64
2018-11-13T03:16:36.456Z,996.69
2018-11-13T03:17:36.440Z,996.66
2018-11-13T03:18:36.464Z,996.69
2018-11-13T03:19:36.428Z,996.67
2018-11-13T03:20:36.413Z,996.75
2018-11-13T03:21:36.397Z,996.72
2018-11-13T03:22:36.401Z,996.79
2018-11-13T03:23:36.373Z,996.85
2018-11-13T03:24:36.409Z,996.82
2018-11-13T03:25:36.354Z,996.84
2018-11-13T03:26:36.339Z,996.81
2018-11-13T03:27:36.332Z,996.86
2018-11-13T03:28:36.319Z,996.96
2018-11-13T03:29:36.361Z,996.93
2018-11-13T03:30:36.321Z,996.95
2018-11-13T03:31:36.472Z,997.13
2018-11-13T03:32:36.279Z,997.05
2018-11-13T03:33:36.265Z,997.03
2018-11-13T03:34:36.272Z,997.08
2018-11-13T03:35:36.246Z,997.05
2018-11-13T03:36:36.261Z,997.13
2018-11-13T03:37:36.225Z,997.11
2018-11-13T03:38:36.212Z,997.05
2018-11-13T03:39:36.217Z,997.11
2018-11-13T03:40:36.189Z,997.07
2018-11-13T03:41:36.180Z,997.07
2018-11-13T03:42:36.185Z,997.08
2018-11-13T03:43:36.160Z,997.10
2018-11-13T03:44:36.159Z,997.07
2018-11-13T03:45:36.135Z,997.05
2018-11-13T03:46:36.126Z,997.08
2018-11-13T03:47:36.115Z,997.11
2018-11-13T03:48:36.149Z,997.20
2018-11-13T03:49:36.106Z,997.26
2018-11-13T03:50:36.084Z,997.31
2018-11-13T03:51:36.074Z,997.29
2018-11-13T03:52:36.061Z,997.23
2018-11-13T03:53:36.050Z,997.21
2018-11-13T03:54:36.104Z,997.27
2018-11-13T03:55:36.032Z,997.36
2018-11-13T03:56:36.019Z,997.34
2018-11-13T03:57:36.009Z,997.35
2018-11-13T03:58:35.996Z,997.30
2018-11-13T03:59:36.004Z,997.37
2018-11-13T04:00:35.998Z,997.37
2018-11-13T04:01:35.965Z,997.42
2018-11-13T04:02:35.953Z,997.37
2018-11-13T04:03:35.943Z,997.36
2018-11-13T04:04:35.947Z,997.43
2018-11-13T04:05:35.921Z,997.45
2018-11-13T04:06:35.933Z,997.48
2018-11-13T04:07:35.898Z,997.59
2018-11-13T04:08:35.888Z,997.57
2018-11-13T04:09:35.891Z,997.56
2018-11-13T04:10:35.869Z,997.61
2018-11-13T04:11:35.869Z,997.63
2018-11-13T04:12:35.867Z,997.65
2018-11-13T04:13:35.836Z,997.62
2018-11-13T04:14:35.838Z,997.70
2018-11-13T04:15:35.813Z,997.73
2018-11-13T04:16:35.811Z,997.75
2018-11-13T04:17:35.791Z,997.77
2018-11-13T04:18:35.830Z,997.75
2018-11-13T04:19:35.787Z,997.68
2018-11-13T04:20:35.758Z,997.68
2018-11-13T04:21:35.749Z,997.63
2018-11-13T04:22:35.736Z,997.73
2018-11-13T04:23:35.727Z,997.76
2018-11-13T04:24:35.758Z,997.81
2018-11-13T04:25:35.704Z,997.86
2018-11-13T04:26:35.702Z,997.85
2018-11-13T04:27:35.684Z,997.85
2018-11-13T04:28:35.673Z,997.84
2018-11-13T04:29:35.679Z,997.78
2018-11-13T04:30:35.729Z,997.68
2018-11-13T04:31:35.644Z,997.70
2018-11-13T04:32:35.629Z,997.85
2018-11-13T04:33:35.621Z,998.04
2018-11-13T04:34:35.623Z,998.06
2018-11-13T04:35:35.596Z,998.03
2018-11-13T04:36:35.617Z,997.98
2018-11-13T04:37:35.575Z,997.88
2018-11-13T04:38:35.562Z,997.85
2018-11-13T04:39:35.567Z,997.93
2018-11-13T04:40:35.543Z,997.89
2018-11-13T04:41:35.532Z,997.78
2018-11-13T04:42:35.536Z,997.72
2018-11-13T04:43:35.510Z,997.86
2018-11-13T04:44:35.517Z,998.04
2018-11-13T04:45:35.488Z,998.11
2018-11-13T04:46:35.478Z,998.17
2018-11-13T04:47:35.529Z,998.14
2018-11-13T04:48:35.457Z,998.07
2018-11-13T04:49:35.463Z,997.95
2018-11-13T04:50:35.438Z,997.84
2018-11-13T04:51:35.510Z,997.87
2018-11-13T04:52:35.413Z,997.97
2018-11-13T04:53:35.439Z,998.15
2018-11-13T04:54:35.404Z,998.24
2018-11-13T04:55:35.382Z,998.33
2018-11-13T04:56:35.369Z,998.27
2018-11-13T04:57:35.360Z,998.24
2018-11-13T04:58:35.349Z,998.17
2018-11-13T04:59:35.373Z,998.11
2018-11-13T05:00:35.325Z,998.08
2018-11-13T05:01:35.317Z,998.02
2018-11-13T05:02:35.310Z,998.08
2018-11-13T05:03:35.300Z,998.11
2018-11-13T05:04:35.300Z,998.25
2018-11-13T05:05:35.297Z,998.44
2018-11-13T05:06:35.263Z,998.49
2018-11-13T05:07:35.252Z,998.37
2018-11-13T05:08:35.241Z,998.20
2018-11-13T05:09:35.244Z,998.17
2018-11-13T05:10:35.219Z,998.17
2018-11-13T05:11:35.227Z,998.19
2018-11-13T05:12:35.197Z,998.20
2018-11-13T05:13:35.185Z,998.17
2018-11-13T05:14:35.191Z,998.24
2018-11-13T05:15:35.165Z,998.32
2018-11-13T05:16:35.153Z,998.37
2018-11-13T05:17:35.182Z,998.42
2018-11-13T05:18:35.131Z,998.47
2018-11-13T05:19:35.138Z,998.50
2018-11-13T05:20:35.115Z,998.55
2018-11-13T05:21:35.099Z,998.57
2018-11-13T05:22:35.087Z,998.63
2018-11-13T05:23:35.156Z,998.59
2018-11-13T05:24:35.079Z,998.63
2018-11-13T05:25:35.057Z,998.64
2018-11-13T05:26:35.045Z,998.61
2018-11-13T05:27:35.034Z,998.62
2018-11-13T05:28:35.023Z,998.65
2018-11-13T05:29:35.055Z,998.69
2018-11-13T05:30:35.006Z,998.78
2018-11-13T05:31:34.992Z,998.87
2018-11-13T05:32:34.981Z,998.98
2018-11-13T05:33:34.977Z,999.01
2018-11-13T05:34:34.973Z,999.05
2018-11-13T05:35:34.972Z,999.05
2018-11-13T05:36:34.938Z,999.02
2018-11-13T05:37:34.927Z,999.04
2018-11-13T05:38:34.917Z,999.05
2018-11-13T05:39:34.924Z,999.08
2018-11-13T05:40:34.896Z,999.08
2018-11-13T05:41:34.959Z,999.18
2018-11-13T05:42:34.872Z,999.28
2018-11-13T05:43:34.864Z,999.30
2018-11-13T05:44:34.866Z,999.32
2018-11-13T05:45:34.839Z,999.43
2018-11-13T05:46:34.828Z,999.44
2018-11-13T05:47:34.846Z,999.56
2018-11-13T05:48:34.810Z,999.61
2018-11-13T05:49:34.823Z,999.61
2018-11-13T05:50:34.785Z,999.65
2018-11-13T05:51:34.775Z,999.61
2018-11-13T05:52:34.763Z,999.65
2018-11-13T05:53:34.771Z,999.64
2018-11-13T05:54:34.755Z,999.67
2018-11-13T05:55:34.730Z,999.71
2018-11-13T05:56:34.720Z,999.80
2018-11-13T05:57:34.709Z,999.83
2018-11-13T05:58:34.698Z,999.87
2018-11-13T05:59:34.769Z,999.92
2018-11-13T06:00:34.680Z,999.97
2018-11-13T06:01:34.667Z,1000.04
2018-11-13T06:02:34.659Z,1000.06
2018-11-13T06:03:34.643Z,1000.12
2018-11-13T06:04:34.648Z,1000.18
2018-11-13T06:05:34.644Z,1000.18
2018-11-13T06:06:34.612Z,1000.22
2018-11-13T06:07:34.601Z,1000.18
2018-11-13T06:08:34.730Z,1000.15
2018-11-13T06:09:34.597Z,1000.16
2018-11-13T06:10:34.568Z,1000.22
2018-11-13T06:11:34.577Z,1000.27
2018-11-13T06:12:34.546Z,1000.36
2018-11-13T06:13:34.555Z,1000.33
2018-11-13T06:14:34.543Z,1000.34
2018-11-13T06:15:34.515Z,1000.33
2018-11-13T06:16:34.506Z,1000.32
2018-11-13T06:17:34.518Z,1000.42
2018-11-13T06:18:34.483Z,1000.46
2018-11-13T06:19:34.486Z,1000.44
2018-11-13T06:20:34.465Z,1000.46
2018-11-13T06:21:34.457Z,1000.42
2018-11-13T06:22:34.444Z,1000.51
2018-11-13T06:23:34.453Z,1000.60
2018-11-13T06:24:34.419Z,1000.71
2018-11-13T06:25:34.422Z,1000.77
2018-11-13T06:26:34.397Z,1000.82
2018-11-13T06:27:34.386Z,1000.87
2018-11-13T06:28:34.374Z,1000.86
2018-11-13T06:29:34.391Z,1000.90
2018-11-13T06:30:34.370Z,1001.03
2018-11-13T06:31:34.343Z,1001.06
2018-11-13T06:32:34.333Z,1001.03
2018-11-13T06:33:34.324Z,1000.99
2018-11-13T06:34:34.311Z,1000.99
2018-11-13T06:35:34.359Z,1001.02
2018-11-13T06:36:34.289Z,1000.99
2018-11-13T06:37:34.297Z,1001.01
2018-11-13T06:38:34.274Z,1001.04
2018-11-13T06:39:34.260Z,1001.05
2018-11-13T06:40:34.261Z,1001.16
2018-11-13T06:41:34.267Z,1001.14
2018-11-13T06:42:34.222Z,1001.16
2018-11-13T06:43:34.213Z,1001.19
2018-11-13T06:44:34.204Z,1001.23
2018-11-13T06:45:34.205Z,1001.24
2018-11-13T06:46:34.185Z,1001.24
2018-11-13T06:47:34.190Z,1001.25
2018-11-13T06:48:34.158Z,1001.30
2018-11-13T06:49:34.192Z,1001.32
2018-11-13T06:50:34.153Z,1001.34
2018-11-13T06:51:34.126Z,1001.34
2018-11-13T06:52:34.118Z,1001.30
2018-11-13T06:53:34.118Z,1001.27
2018-11-13T06:54:34.095Z,1001.34
2018-11-13T06:55:34.102Z,1001.30
2018-11-13T06:56:34.074Z,1001.41
2018-11-13T06:57:34.080Z,1001.39
2018-11-13T06:58:34.055Z,1001.40
2018-11-13T06:59:34.056Z,1001.45
2018-11-13T07:00:34.053Z,1001.52
2018-11-13T07:01:34.020Z,1001.52
2018-11-13T07:02:34.010Z,1001.66
2018-11-13T07:03:33.998Z,1001.57
2018-11-13T07:04:33.989Z,1001.54
2018-11-13T07:05:34.013Z,1001.57
2018-11-13T07:06:33.967Z,1001.54
2018-11-13T07:07:33.956Z,1001.62
2018-11-13T07:08:33.945Z,1001.63
2018-11-13T07:09:33.933Z,1001.64
2018-11-13T07:10:33.964Z,1001.66
2018-11-13T07:11:33.948Z,1001.60
2018-11-13T07:12:33.903Z,1001.62
2018-11-13T07:13:33.891Z,1001.68
2018-11-13T07:14:33.881Z,1001.67
2018-11-13T07:15:33.889Z,1001.66
2018-11-13T07:16:33.862Z,1001.60
2018-11-13T07:17:33.875Z,1001.61
2018-11-13T07:18:33.892Z,1001.64
2018-11-13T07:19:33.830Z,1001.70
2018-11-13T07:20:33.834Z,1001.72
2018-11-13T07:21:33.807Z,1001.76
2018-11-13T07:22:33.796Z,1001.76
2018-11-13T07:23:33.827Z,1001.71
2018-11-13T07:24:33.780Z,1001.75
2018-11-13T07:25:33.889Z,1001.77
2018-11-13T07:26:33.753Z,1001.80
2018-11-13T07:27:33.849Z,1001.82
2018-11-13T07:28:33.732Z,1001.88
2018-11-13T07:29:33.756Z,1001.93
2018-11-13T07:30:33.725Z,1001.98
2018-11-13T07:31:33.702Z,1002.10
2018-11-13T07:32:33.690Z,1002.14
2018-11-13T07:33:33.749Z,1002.15
2018-11-13T07:34:33.670Z,1002.21
2018-11-13T07:35:33.691Z,1002.25
2018-11-13T07:36:33.645Z,1002.26
2018-11-13T07:37:33.636Z,1002.25
2018-11-13T07:38:33.626Z,1002.25
2018-11-13T07:39:33.617Z,1002.23
2018-11-13T07:40:33.615Z,1002.23
2018-11-13T07:41:33.619Z,1002.19
2018-11-13T07:42:33.585Z,1002.21
2018-11-13T07:43:33.571Z,1002.13
2018-11-13T07:44:33.560Z,1002.07
2018-11-13T07:45:33.562Z,1002.09
2018-11-13T07:46:33.588Z,1002.06
2018-11-13T07:47:33.660Z,1002.09
2018-11-13T07:48:33.522Z,1002.14
2018-11-13T07:49:33.508Z,1002.09
2018-11-13T07:50:33.507Z,1002.12
2018-11-13T07:51:33.485Z,1002.15
2018-11-13T07:52:33.477Z,1002.10
2018-11-13T07:53:33.489Z,1002.11
2018-11-13T07:54:33.461Z,1002.10
2018-11-13T07:55:33.459Z,1002.12
2018-11-13T07:56:33.433Z,1002.14
2018-11-13T07:57:33.423Z,1002.09
2018-11-13T07:58:33.462Z,1002.02
2018-11-13T07:59:33.421Z,1002.08
2018-11-13T08:00:33.407Z,1002.09
2018-11-13T08:01:33.382Z,1002.05
2018-11-13T08:02:33.371Z,1002.03
2018-11-13T08:03:33.373Z,1002.02
2018-11-13T08:04:33.351Z,1001.97
2018-11-13T08:05:33.394Z,1001.94
2018-11-13T08:06:33.411Z,1001.93
2018-11-13T08:07:33.316Z,1001.98
2018-11-13T08:08:33.309Z,1001.99
2018-11-13T08:09:33.296Z,1001.96
2018-11-13T08:10:33.284Z,1002.01
2018-11-13T08:11:33.302Z,1002.04
2018-11-13T08:12:33.261Z,1002.01
2018-11-13T08:13:33.390Z,1001.98
2018-11-13T08:14:33.255Z,1001.98
2018-11-13T08:15:33.287Z,1001.94
2018-11-13T08:16:33.315Z,1001.90
2018-11-13T08:17:33.214Z,1001.92
2018-11-13T08:18:33.323Z,1002.00
2018-11-13T08:19:33.193Z,1001.99
2018-11-13T08:20:33.178Z,1001.95
2018-11-13T08:21:33.182Z,1002.01
2018-11-13T08:22:33.156Z,1002.03
2018-11-13T08:23:33.178Z,1002.00
2018-11-13T08:24:33.133Z,1002.01
2018-11-13T08:25:33.130Z,1002.03
2018-11-13T08:26:33.125Z,1002.11
2018-11-13T08:27:33.157Z,1002.11
2018-11-13T08:28:33.104Z,1002.13
2018-11-13T08:29:33.131Z,1002.21
2018-11-13T08:30:33.067Z,1002.23
2018-11-13T08:31:33.088Z,1002.23
2018-11-13T08:32:33.050Z,1002.28
2018-11-13T08:33:33.036Z,1002.29
2018-11-13T08:34:33.028Z,1002.31
2018-11-13T08:35:33.069Z,1002.32
2018-11-13T08:36:33.022Z,1002.25
2018-11-13T08:37:32.995Z,1002.28
2018-11-13T08:38:32.981Z,1002.25
2018-11-13T08:39:32.978Z,1002.26
2018-11-13T08:40:32.966Z,1002.24
2018-11-13T08:41:33.007Z,1002.21
2018-11-13T08:42:32.941Z,1002.27
2018-11-13T08:43:32.929Z,1002.29
2018-11-13T08:44:32.923Z,1002.31
2018-11-13T08:45:32.906Z,1002.25
2018-11-13T08:46:32.910Z,1002.28
2018-11-13T08:47:32.923Z,1002.28
2018-11-13T08:48:32.875Z,1002.27
2018-11-13T08:49:32.863Z,1002.27
2018-11-13T08:50:32.947Z,1002.22
2018-11-13T08:51:32.852Z,1002.20
2018-11-13T08:52:32.830Z,1002.14
2018-11-13T08:53:32.848Z,1002.07
2018-11-13T08:54:32.810Z,1002.05
2018-11-13T08:55:32.796Z,1001.94
2018-11-13T08:56:32.798Z,1001.93
2018-11-13T08:57:32.784Z,1001.90
2018-11-13T08:58:32.853Z,1001.92
2018-11-13T08:59:32.814Z,1001.88
2018-11-13T09:00:32.744Z,1001.82
2018-11-13T09:01:32.749Z,1001.86
2018-11-13T09:02:32.722Z,1001.84
2018-11-13T09:03:32.763Z,1001.87
2018-11-13T09:04:32.699Z,1001.91
2018-11-13T09:05:32.703Z,1001.89
2018-11-13T09:06:32.696Z,1001.93
2018-11-13T09:07:32.667Z,1002.00
2018-11-13T09:08:32.655Z,1002.04
2018-11-13T09:09:32.645Z,1001.99
2018-11-13T09:10:32.635Z,1002.07
2018-11-13T09:11:32.659Z,1002.16
2018-11-13T09:12:32.728Z,1002.20
2018-11-13T09:13:32.602Z,1002.21
2018-11-13T09:14:32.590Z,1002.21
2018-11-13T09:15:32.582Z,1002.16
2018-11-13T09:16:32.584Z,1002.18
2018-11-13T09:17:32.583Z,1002.15
2018-11-13T09:18:32.547Z,1002.12
2018-11-13T09:19:32.712Z,1002.09
2018-11-13T09:20:32.526Z,1002.13
2018-11-13T09:21:32.527Z,1002.07
2018-11-13T09:22:32.542Z,1002.09
2018-11-13T09:23:32.494Z,1002.08
2018-11-13T09:24:32.488Z,1002.17
2018-11-13T09:25:32.474Z,1002.17
2018-11-13T09:26:32.481Z,1002.10
2018-11-13T09:27:32.449Z,1002.07
2018-11-13T09:28:32.471Z,1002.04
2018-11-13T09:29:32.435Z,1001.98
2018-11-13T09:30:32.773Z,1001.91
2018-11-13T09:31:32.447Z,1001.89
2018-11-13T09:32:32.398Z,1001.93
2018-11-13T09:33:32.431Z,1001.96
2018-11-13T09:34:32.405Z,1001.88
2018-11-13T09:35:32.367Z,1001.85
2018-11-13T09:36:32.370Z,1001.79
2018-11-13T09:37:32.402Z,1001.75
2018-11-13T09:38:32.331Z,1001.84
2018-11-13T09:39:32.318Z,1001.86
2018-11-13T09:40:32.333Z,1001.96
2018-11-13T09:41:32.310Z,1002.06
2018-11-13T09:42:32.285Z,1002.13
2018-11-13T09:43:32.275Z,1002.25
2018-11-13T09:44:32.269Z,1002.33
2018-11-13T09:45:32.257Z,1002.41
2018-11-13T09:46:32.370Z,1002.52
2018-11-13T09:47:32.243Z,1002.58
2018-11-13T09:48:32.225Z,1002.66
2018-11-13T09:49:32.214Z,1002.69
2018-11-13T09:50:32.229Z,1002.71
2018-11-13T09:51:32.212Z,1002.70
2018-11-13T09:52:32.208Z,1002.67
2018-11-13T09:53:32.205Z,1002.70
2018-11-13T09:54:32.157Z,1002.77
2018-11-13T09:55:32.163Z,1002.88
2018-11-13T09:56:32.269Z,1002.92
2018-11-13T09:57:32.139Z,1002.97
2018-11-13T09:58:32.158Z,1003.00
2018-11-13T09:59:32.101Z,1003.03
2018-11-13T10:00:32.386Z,1002.98
2018-11-13T10:01:32.638Z,1002.95
2018-11-13T10:02:32.707Z,1002.99
2018-11-13T10:03:32.509Z,1002.97
2018-11-13T10:04:32.702Z,1002.95
2018-11-13T10:05:32.135Z,1002.99
2018-11-13T10:06:32.028Z,1002.99
2018-11-13T10:07:32.033Z,1002.95
2018-11-13T10:08:32.008Z,1002.92
2018-11-13T10:09:31.993Z,1002.90
2018-11-13T10:10:32.070Z,1002.90
2018-11-13T10:11:31.990Z,1002.92
2018-11-13T10:12:31.974Z,1003.00
2018-11-13T10:13:32.014Z,1002.99
2018-11-13T10:14:31.941Z,1002.97
2018-11-13T10:15:31.931Z,1003.02
2018-11-13T10:16:31.950Z,1003.09
2018-11-13T10:17:31.992Z,1003.16
2018-11-13T10:18:31.896Z,1003.18
2018-11-13T10:19:31.886Z,1003.21
2018-11-13T10:20:31.873Z,1003.22
2018-11-13T10:21:31.883Z,1003.22
2018-11-13T10:22:31.900Z,1003.19
2018-11-13T10:23:31.848Z,1003.18
2018-11-13T10:24:31.832Z,1003.17
2018-11-13T10:25:31.820Z,1003.18
2018-11-13T10:26:31.930Z,1003.12
2018-11-13T10:27:31.811Z,1003.11
2018-11-13T10:28:31.826Z,1003.08
2018-11-13T10:29:31.796Z,1003.10
2018-11-13T10:30:31.772Z,1003.18
2018-11-13T10:31:31.755Z,1003.19
2018-11-13T10:32:31.761Z,1003.24
2018-11-13T10:33:31.749Z,1003.23
2018-11-13T10:34:31.730Z,1003.25
2018-11-13T10:35:31.711Z,1003.22
2018-11-13T10:36:31.701Z,1003.18
2018-11-13T10:37:31.762Z,1003.20
2018-11-13T10:38:31.688Z,1003.16
2018-11-13T10:39:31.672Z,1003.22
2018-11-13T10:40:31.823Z,1003.21
2018-11-13T10:41:31.747Z,1003.25
2018-11-13T10:42:31.650Z,1003.25
2018-11-13T10:43:31.626Z,1003.23
2018-11-13T10:44:31.613Z,1003.27
2018-11-13T10:45:31.611Z,1003.24
2018-11-13T10:46:31.644Z,1003.23
2018-11-13T10:47:31.604Z,1003.30
2018-11-13T10:48:31.573Z,1003.24
2018-11-13T10:49:31.566Z,1003.24
2018-11-13T10:50:31.700Z,1003.26
2018-11-13T10:51:31.542Z,1003.13
2018-11-13T10:52:31.563Z,1003.05
2018-11-13T10:53:31.520Z,1003.01
2018-11-13T10:54:31.507Z,1002.98
2018-11-13T10:55:31.498Z,1003.04
2018-11-13T10:56:31.650Z,1003.15
2018-11-13T10:57:31.507Z,1003.19
2018-11-13T10:58:31.510Z,1003.16
2018-11-13T10:59:31.456Z,1003.11
2018-11-13T11:00:31.444Z,1003.06
2018-11-13T11:01:31.433Z,1003.05
2018-11-13T11:02:31.571Z,1003.03
2018-11-13T11:03:31.413Z,1003.04
2018-11-13T11:04:31.477Z,1003.10
2018-11-13T11:05:31.391Z,1003.10
2018-11-13T11:06:31.377Z,1003.08
2018-11-13T11:07:31.379Z,1003.03
2018-11-13T11:08:31.355Z,1003.03
2018-11-13T11:09:31.348Z,1003.07
2018-11-13T11:10:31.387Z,1003.07
2018-11-13T11:11:31.380Z,1003.14
2018-11-13T11:12:31.333Z,1003.14
2018-11-13T11:13:31.340Z,1003.14
2018-11-13T11:14:31.300Z,1003.12
2018-11-13T11:15:31.289Z,1003.09
2018-11-13T11:16:31.275Z,1003.11
2018-11-13T11:17:31.319Z,1003.08
2018-11-13T11:18:31.286Z,1003.09
2018-11-13T11:19:31.318Z,1003.04
2018-11-13T11:20:31.230Z,1002.97
2018-11-13T11:21:31.219Z,1003.05
2018-11-13T11:22:31.219Z,1003.06
2018-11-13T11:23:31.265Z,1003.08
2018-11-13T11:24:31.184Z,1003.04
2018-11-13T11:25:31.299Z,1002.97
2018-11-13T11:26:31.251Z,1002.93
2018-11-13T11:27:31.163Z,1002.94
2018-11-13T11:28:31.141Z,1002.91
2018-11-13T11:29:31.183Z,1002.84
2018-11-13T11:30:31.121Z,1002.84
2018-11-13T11:31:31.108Z,1002.81
2018-11-13T11:32:31.111Z,1002.85
2018-11-13T11:33:31.092Z,1002.91
2018-11-13T11:34:31.074Z,1002.92
2018-11-13T11:35:31.107Z,1002.98
2018-11-13T11:36:31.055Z,1002.97
2018-11-13T11:37:31.055Z,1002.99
2018-11-13T11:38:31.112Z,1003.01
2018-11-13T11:39:31.028Z,1003.01
2018-11-13T11:40:31.014Z,1003.07
2018-11-13T11:41:31.028Z,1003.09
2018-11-13T11:42:31.022Z,1003.09
2018-11-13T11:43:30.980Z,1003.16
2018-11-13T11:44:31.055Z,1003.09
2018-11-13T11:45:30.960Z,1003.09
2018-11-13T11:46:30.947Z,1003.04
2018-11-13T11:47:30.992Z,1003.05
2018-11-13T11:48:30.929Z,1003.03
2018-11-13T11:49:30.912Z,1003.12
2018-11-13T11:50:30.905Z,1003.10
2018-11-13T11:51:30.894Z,1003.23
2018-11-13T11:52:30.899Z,1003.25
2018-11-13T11:53:30.909Z,1003.30
2018-11-13T11:54:30.860Z,1003.38
2018-11-13T11:55:30.854Z,1003.30
2018-11-13T11:56:30.846Z,1003.28
2018-11-13T11:57:30.839Z,1003.14
2018-11-13T11:58:30.819Z,1003.15
2018-11-13T11:59:30.867Z,1003.11
2018-11-13T12:00:30.816Z,1003.18
2018-11-13T12:01:30.784Z,1003.15
2018-11-13T12:02:30.793Z,1003.25
2018-11-13T12:03:30.769Z,1003.18
2018-11-13T12:04:30.754Z,1003.25
2018-11-13T12:05:30.785Z,1003.25
2018-11-13T12:06:30.730Z,1003.32
2018-11-13T12:07:30.733Z,1003.27
2018-11-13T12:08:30.708Z,1003.17
2018-11-13T12:09:30.700Z,1003.22
2018-11-13T12:10:30.688Z,1003.20
2018-11-13T12:11:30.697Z,1003.16
2018-11-13T12:12:30.683Z,1003.17
2018-11-13T12:13:30.660Z,1003.21
2018-11-13T12:14:30.643Z,1003.12
2018-11-13T12:15:30.636Z,1003.12
2018-11-13T12:16:30.630Z,1003.08